sensor_id;sensor_type;location;lat;lon;timestamp;temperature;humidity
23560;DHT22;11958;50.836;4.438;2023-04-06T00:01:02;8.10;51.80
23560;DHT22;11958;50.836;4.438;2023-04-06T00:03:28;8.00;52.40
23560;DHT22;11958;50.836;4.438;2023-04-06T00:05:53;7.70;53.50
23560;DHT22;11958;50.836;4.438;2023-04-06T00:08:19;8.00;52.60
23560;DHT22;11958;50.836;4.438;2023-04-06T00:10:47;8.10;52.20
23560;DHT22;11958;50.836;4.438;2023-04-06T00:13:12;8.10;52.10
23560;DHT22;11958;50.836;4.438;2023-04-06T00:15:38;8.00;52.50
23560;DHT22;11958;50.836;4.438;2023-04-06T00:18:04;8.10;52.30
23560;DHT22;11958;50.836;4.438;2023-04-06T00:20:29;8.20;53.00
23560;DHT22;11958;50.836;4.438;2023-04-06T00:22:55;8.20;51.50
23560;DHT22;11958;50.836;4.438;2023-04-06T00:25:22;8.30;52.10
23560;DHT22;11958;50.836;4.438;2023-04-06T00:27:48;8.30;51.30
23560;DHT22;11958;50.836;4.438;2023-04-06T00:30:13;8.20;50.60
23560;DHT22;11958;50.836;4.438;2023-04-06T00:32:39;8.20;50.30
23560;DHT22;11958;50.836;4.438;2023-04-06T00:35:06;8.00;50.40
23560;DHT22;11958;50.836;4.438;2023-04-06T00:37:34;8.20;51.10
23560;DHT22;11958;50.836;4.438;2023-04-06T00:40:00;8.30;50.60
23560;DHT22;11958;50.836;4.438;2023-04-06T00:42:26;8.20;50.70
23560;DHT22;11958;50.836;4.438;2023-04-06T00:44:56;7.90;51.90
23560;DHT22;11958;50.836;4.438;2023-04-06T00:47:23;7.70;51.30
23560;DHT22;11958;50.836;4.438;2023-04-06T00:49:50;7.80;51.50
23560;DHT22;11958;50.836;4.438;2023-04-06T00:52:17;8.20;51.50
23560;DHT22;11958;50.836;4.438;2023-04-06T00:54:43;8.10;51.00
23560;DHT22;11958;50.836;4.438;2023-04-06T00:57:09;8.20;51.00
23560;DHT22;11958;50.836;4.438;2023-04-06T00:59:34;8.60;50.70
23560;DHT22;11958;50.836;4.438;2023-04-06T01:02:00;8.40;49.40
23560;DHT22;11958;50.836;4.438;2023-04-06T01:04:27;8.40;50.50
23560;DHT22;11958;50.836;4.438;2023-04-06T01:06:52;8.70;48.30
23560;DHT22;11958;50.836;4.438;2023-04-06T01:09:18;8.60;49.30
23560;DHT22;11958;50.836;4.438;2023-04-06T01:11:44;8.80;45.80
23560;DHT22;11958;50.836;4.438;2023-04-06T01:14:10;8.70;44.50
23560;DHT22;11958;50.836;4.438;2023-04-06T01:16:36;8.70;44.50
23560;DHT22;11958;50.836;4.438;2023-04-06T01:19:08;8.80;46.30
23560;DHT22;11958;50.836;4.438;2023-04-06T01:21:35;8.70;49.20
23560;DHT22;11958;50.836;4.438;2023-04-06T01:24:01;8.50;48.10
23560;DHT22;11958;50.836;4.438;2023-04-06T01:26:27;8.30;49.10
23560;DHT22;11958;50.836;4.438;2023-04-06T01:28:54;8.20;51.10
23560;DHT22;11958;50.836;4.438;2023-04-06T01:31:21;8.30;52.00
23560;DHT22;11958;50.836;4.438;2023-04-06T01:33:46;8.30;52.40
23560;DHT22;11958;50.836;4.438;2023-04-06T01:36:12;8.30;51.40
23560;DHT22;11958;50.836;4.438;2023-04-06T01:38:38;8.70;45.40
23560;DHT22;11958;50.836;4.438;2023-04-06T01:41:04;8.70;44.10
23560;DHT22;11958;50.836;4.438;2023-04-06T01:43:30;8.70;44.20
23560;DHT22;11958;50.836;4.438;2023-04-06T01:45:55;8.80;45.00
23560;DHT22;11958;50.836;4.438;2023-04-06T01:48:21;8.70;43.90
23560;DHT22;11958;50.836;4.438;2023-04-06T01:50:47;8.90;43.10
23560;DHT22;11958;50.836;4.438;2023-04-06T01:53:12;8.80;44.70
23560;DHT22;11958;50.836;4.438;2023-04-06T01:55:38;8.70;45.90
23560;DHT22;11958;50.836;4.438;2023-04-06T01:58:04;8.70;45.70
23560;DHT22;11958;50.836;4.438;2023-04-06T02:00:29;8.40;46.70
23560;DHT22;11958;50.836;4.438;2023-04-06T02:02:55;8.70;46.30
23560;DHT22;11958;50.836;4.438;2023-04-06T02:05:21;8.50;46.20
23560;DHT22;11958;50.836;4.438;2023-04-06T02:07:46;8.60;46.70
23560;DHT22;11958;50.836;4.438;2023-04-06T02:10:13;8.40;46.80
23560;DHT22;11958;50.836;4.438;2023-04-06T02:12:39;8.60;46.20
23560;DHT22;11958;50.836;4.438;2023-04-06T02:15:06;8.40;47.10
23560;DHT22;11958;50.836;4.438;2023-04-06T02:17:32;8.40;47.30
23560;DHT22;11958;50.836;4.438;2023-04-06T02:19:58;8.60;47.00
23560;DHT22;11958;50.836;4.438;2023-04-06T02:22:23;8.60;47.20
23560;DHT22;11958;50.836;4.438;2023-04-06T02:24:49;8.50;47.70
23560;DHT22;11958;50.836;4.438;2023-04-06T02:27:15;8.30;47.00
23560;DHT22;11958;50.836;4.438;2023-04-06T02:29:41;8.30;47.60
23560;DHT22;11958;50.836;4.438;2023-04-06T02:32:07;8.40;46.40
23560;DHT22;11958;50.836;4.438;2023-04-06T02:34:32;8.30;46.30
23560;DHT22;11958;50.836;4.438;2023-04-06T02:36:58;8.30;46.80
23560;DHT22;11958;50.836;4.438;2023-04-06T02:39:24;8.40;46.70
23560;DHT22;11958;50.836;4.438;2023-04-06T02:41:50;8.40;46.40
23560;DHT22;11958;50.836;4.438;2023-04-06T02:44:15;8.30;46.90
23560;DHT22;11958;50.836;4.438;2023-04-06T02:46:41;8.30;46.60
23560;DHT22;11958;50.836;4.438;2023-04-06T02:49:07;8.20;47.00
23560;DHT22;11958;50.836;4.438;2023-04-06T02:51:33;8.40;47.60
23560;DHT22;11958;50.836;4.438;2023-04-06T02:53:59;8.20;49.00
23560;DHT22;11958;50.836;4.438;2023-04-06T02:56:24;8.00;50.90
23560;DHT22;11958;50.836;4.438;2023-04-06T02:58:52;8.00;51.10
23560;DHT22;11958;50.836;4.438;2023-04-06T03:01:17;7.50;53.40
23560;DHT22;11958;50.836;4.438;2023-04-06T03:03:43;7.70;52.80
23560;DHT22;11958;50.836;4.438;2023-04-06T03:06:09;7.70;51.30
23560;DHT22;11958;50.836;4.438;2023-04-06T03:08:34;7.90;51.70
23560;DHT22;11958;50.836;4.438;2023-04-06T03:11:00;7.40;53.20
23560;DHT22;11958;50.836;4.438;2023-04-06T03:13:26;7.50;52.20
23560;DHT22;11958;50.836;4.438;2023-04-06T03:15:52;7.90;51.30
23560;DHT22;11958;50.836;4.438;2023-04-06T03:18:24;8.10;50.50
23560;DHT22;11958;50.836;4.438;2023-04-06T03:20:51;7.90;50.20
23560;DHT22;11958;50.836;4.438;2023-04-06T03:23:16;8.00;51.10
23560;DHT22;11958;50.836;4.438;2023-04-06T03:25:42;7.80;51.50
23560;DHT22;11958;50.836;4.438;2023-04-06T03:28:08;7.70;52.10
23560;DHT22;11958;50.836;4.438;2023-04-06T03:30:34;7.90;50.40
23560;DHT22;11958;50.836;4.438;2023-04-06T03:33:00;7.60;50.90
23560;DHT22;11958;50.836;4.438;2023-04-06T03:35:25;7.70;52.10
23560;DHT22;11958;50.836;4.438;2023-04-06T03:37:51;7.40;52.50
23560;DHT22;11958;50.836;4.438;2023-04-06T03:40:17;7.40;54.30
23560;DHT22;11958;50.836;4.438;2023-04-06T03:42:42;6.80;54.90
23560;DHT22;11958;50.836;4.438;2023-04-06T03:45:08;6.80;55.60
23560;DHT22;11958;50.836;4.438;2023-04-06T03:47:34;7.00;55.30
23560;DHT22;11958;50.836;4.438;2023-04-06T03:50:00;6.80;55.60
23560;DHT22;11958;50.836;4.438;2023-04-06T03:52:26;6.80;56.00
23560;DHT22;11958;50.836;4.438;2023-04-06T03:54:52;6.60;56.40
23560;DHT22;11958;50.836;4.438;2023-04-06T03:57:18;6.60;56.70
23560;DHT22;11958;50.836;4.438;2023-04-06T03:59:43;6.60;57.50
23560;DHT22;11958;50.836;4.438;2023-04-06T04:02:09;6.70;58.50
23560;DHT22;11958;50.836;4.438;2023-04-06T04:04:35;6.50;59.00
23560;DHT22;11958;50.836;4.438;2023-04-06T04:07:00;7.10;57.60
23560;DHT22;11958;50.836;4.438;2023-04-06T04:09:26;6.80;56.30
23560;DHT22;11958;50.836;4.438;2023-04-06T04:11:52;6.90;56.00
23560;DHT22;11958;50.836;4.438;2023-04-06T04:14:17;6.50;55.70
23560;DHT22;11958;50.836;4.438;2023-04-06T04:16:43;6.40;56.10
23560;DHT22;11958;50.836;4.438;2023-04-06T04:19:09;6.50;56.10
23560;DHT22;11958;50.836;4.438;2023-04-06T04:21:42;6.60;56.20
23560;DHT22;11958;50.836;4.438;2023-04-06T04:24:08;6.80;54.10
23560;DHT22;11958;50.836;4.438;2023-04-06T04:26:34;6.50;55.00
23560;DHT22;11958;50.836;4.438;2023-04-06T04:29:00;6.70;55.70
23560;DHT22;11958;50.836;4.438;2023-04-06T04:31:25;6.70;55.60
23560;DHT22;11958;50.836;4.438;2023-04-06T04:33:51;6.90;56.20
23560;DHT22;11958;50.836;4.438;2023-04-06T04:36:17;6.90;55.50
23560;DHT22;11958;50.836;4.438;2023-04-06T04:38:42;6.90;55.70
23560;DHT22;11958;50.836;4.438;2023-04-06T04:41:08;6.80;54.70
23560;DHT22;11958;50.836;4.438;2023-04-06T04:43:34;6.90;54.80
23560;DHT22;11958;50.836;4.438;2023-04-06T04:45:59;7.20;55.10
23560;DHT22;11958;50.836;4.438;2023-04-06T04:48:25;7.40;54.90
23560;DHT22;11958;50.836;4.438;2023-04-06T04:50:51;7.50;54.60
23560;DHT22;11958;50.836;4.438;2023-04-06T04:53:17;7.50;54.70
23560;DHT22;11958;50.836;4.438;2023-04-06T04:55:42;7.40;54.60
23560;DHT22;11958;50.836;4.438;2023-04-06T04:58:08;7.60;55.00
23560;DHT22;11958;50.836;4.438;2023-04-06T05:00:36;7.40;55.50
23560;DHT22;11958;50.836;4.438;2023-04-06T05:03:03;7.30;56.50
23560;DHT22;11958;50.836;4.438;2023-04-06T05:05:29;7.30;57.60
23560;DHT22;11958;50.836;4.438;2023-04-06T05:07:56;7.20;57.20
23560;DHT22;11958;50.836;4.438;2023-04-06T05:10:22;7.80;57.90
23560;DHT22;11958;50.836;4.438;2023-04-06T05:12:47;8.00;58.30
23560;DHT22;11958;50.836;4.438;2023-04-06T05:15:13;7.90;56.10
23560;DHT22;11958;50.836;4.438;2023-04-06T05:17:39;7.60;56.80
23560;DHT22;11958;50.836;4.438;2023-04-06T05:20:05;7.50;57.50
23560;DHT22;11958;50.836;4.438;2023-04-06T05:22:31;7.40;56.90
23560;DHT22;11958;50.836;4.438;2023-04-06T05:24:57;7.60;56.10
23560;DHT22;11958;50.836;4.438;2023-04-06T05:27:22;7.50;54.90
23560;DHT22;11958;50.836;4.438;2023-04-06T05:29:49;7.60;54.40
23560;DHT22;11958;50.836;4.438;2023-04-06T05:32:14;7.40;54.20
23560;DHT22;11958;50.836;4.438;2023-04-06T05:34:40;7.90;54.00
23560;DHT22;11958;50.836;4.438;2023-04-06T05:37:06;7.70;52.90
23560;DHT22;11958;50.836;4.438;2023-04-06T05:39:31;7.80;52.30
23560;DHT22;11958;50.836;4.438;2023-04-06T05:41:57;8.20;51.40
23560;DHT22;11958;50.836;4.438;2023-04-06T05:44:23;8.30;51.40
23560;DHT22;11958;50.836;4.438;2023-04-06T05:46:48;8.30;50.70
23560;DHT22;11958;50.836;4.438;2023-04-06T05:49:14;8.40;50.70
23560;DHT22;11958;50.836;4.438;2023-04-06T05:51:40;8.80;50.50
23560;DHT22;11958;50.836;4.438;2023-04-06T05:54:05;8.60;50.10
23560;DHT22;11958;50.836;4.438;2023-04-06T05:56:31;8.50;50.70
23560;DHT22;11958;50.836;4.438;2023-04-06T05:58:57;8.40;51.50
23560;DHT22;11958;50.836;4.438;2023-04-06T06:01:23;8.40;51.20
23560;DHT22;11958;50.836;4.438;2023-04-06T06:03:48;8.40;50.70
23560;DHT22;11958;50.836;4.438;2023-04-06T06:06:14;8.50;51.20
23560;DHT22;11958;50.836;4.438;2023-04-06T06:08:39;8.50;50.60
23560;DHT22;11958;50.836;4.438;2023-04-06T06:11:06;8.70;50.20
23560;DHT22;11958;50.836;4.438;2023-04-06T06:13:31;8.70;50.70
23560;DHT22;11958;50.836;4.438;2023-04-06T06:15:58;8.50;51.10
23560;DHT22;11958;50.836;4.438;2023-04-06T06:18:24;8.60;51.60
23560;DHT22;11958;50.836;4.438;2023-04-06T06:20:50;8.60;51.30
23560;DHT22;11958;50.836;4.438;2023-04-06T06:23:15;8.80;52.30
23560;DHT22;11958;50.836;4.438;2023-04-06T06:25:41;8.70;51.40
23560;DHT22;11958;50.836;4.438;2023-04-06T06:28:09;8.60;51.50
23560;DHT22;11958;50.836;4.438;2023-04-06T06:30:35;8.50;52.40
23560;DHT22;11958;50.836;4.438;2023-04-06T06:33:01;8.60;53.60
23560;DHT22;11958;50.836;4.438;2023-04-06T06:35:26;8.80;52.70
23560;DHT22;11958;50.836;4.438;2023-04-06T06:37:52;8.80;54.10
23560;DHT22;11958;50.836;4.438;2023-04-06T06:40:18;8.90;55.00
23560;DHT22;11958;50.836;4.438;2023-04-06T06:42:43;8.70;57.00
23560;DHT22;11958;50.836;4.438;2023-04-06T06:45:09;8.60;57.80
23560;DHT22;11958;50.836;4.438;2023-04-06T06:47:35;8.50;60.00
23560;DHT22;11958;50.836;4.438;2023-04-06T06:50:01;8.60;60.40
23560;DHT22;11958;50.836;4.438;2023-04-06T06:52:28;8.80;62.40
23560;DHT22;11958;50.836;4.438;2023-04-06T06:54:56;8.80;62.10
23560;DHT22;11958;50.836;4.438;2023-04-06T06:57:25;8.90;62.50
23560;DHT22;11958;50.836;4.438;2023-04-06T06:59:51;8.80;63.10
23560;DHT22;11958;50.836;4.438;2023-04-06T07:02:16;9.20;63.70
23560;DHT22;11958;50.836;4.438;2023-04-06T07:04:42;9.50;64.80
23560;DHT22;11958;50.836;4.438;2023-04-06T07:07:08;8.90;65.70
23560;DHT22;11958;50.836;4.438;2023-04-06T07:09:34;8.90;67.00
23560;DHT22;11958;50.836;4.438;2023-04-06T07:12:00;8.90;66.80
23560;DHT22;11958;50.836;4.438;2023-04-06T07:14:27;9.10;66.90
23560;DHT22;11958;50.836;4.438;2023-04-06T07:16:53;9.10;67.80
23560;DHT22;11958;50.836;4.438;2023-04-06T07:19:18;9.10;66.10
23560;DHT22;11958;50.836;4.438;2023-04-06T07:21:44;8.80;68.30
23560;DHT22;11958;50.836;4.438;2023-04-06T07:24:10;8.80;69.10
23560;DHT22;11958;50.836;4.438;2023-04-06T07:26:35;8.60;69.70
23560;DHT22;11958;50.836;4.438;2023-04-06T07:29:01;9.00;70.30
23560;DHT22;11958;50.836;4.438;2023-04-06T07:31:27;8.80;70.80
23560;DHT22;11958;50.836;4.438;2023-04-06T07:33:52;8.90;72.20
23560;DHT22;11958;50.836;4.438;2023-04-06T07:36:20;9.20;72.20
23560;DHT22;11958;50.836;4.438;2023-04-06T07:38:46;9.20;71.10
23560;DHT22;11958;50.836;4.438;2023-04-06T07:41:11;9.40;72.30
23560;DHT22;11958;50.836;4.438;2023-04-06T07:43:37;9.60;69.80
23560;DHT22;11958;50.836;4.438;2023-04-06T07:46:03;9.10;71.50
23560;DHT22;11958;50.836;4.438;2023-04-06T07:48:29;9.10;73.40
23560;DHT22;11958;50.836;4.438;2023-04-06T07:51:04;8.80;74.10
23560;DHT22;11958;50.836;4.438;2023-04-06T07:53:31;9.10;74.50
23560;DHT22;11958;50.836;4.438;2023-04-06T07:55:58;9.10;75.30
23560;DHT22;11958;50.836;4.438;2023-04-06T07:58:24;8.90;76.40
23560;DHT22;11958;50.836;4.438;2023-04-06T08:00:50;8.90;74.80
23560;DHT22;11958;50.836;4.438;2023-04-06T08:03:16;8.80;76.70
23560;DHT22;11958;50.836;4.438;2023-04-06T08:05:42;9.00;75.80
23560;DHT22;11958;50.836;4.438;2023-04-06T08:08:08;9.10;76.80
23560;DHT22;11958;50.836;4.438;2023-04-06T08:10:34;8.90;78.30
23560;DHT22;11958;50.836;4.438;2023-04-06T08:13:00;8.60;78.40
23560;DHT22;11958;50.836;4.438;2023-04-06T08:15:26;8.70;78.20
23560;DHT22;11958;50.836;4.438;2023-04-06T08:17:52;8.80;78.90
23560;DHT22;11958;50.836;4.438;2023-04-06T08:20:18;8.80;78.90
23560;DHT22;11958;50.836;4.438;2023-04-06T08:22:43;8.70;79.70
23560;DHT22;11958;50.836;4.438;2023-04-06T08:25:09;8.70;80.30
23560;DHT22;11958;50.836;4.438;2023-04-06T08:27:35;8.50;80.00
23560;DHT22;11958;50.836;4.438;2023-04-06T08:30:00;8.70;79.60
23560;DHT22;11958;50.836;4.438;2023-04-06T08:32:27;8.70;80.90
23560;DHT22;11958;50.836;4.438;2023-04-06T08:34:55;8.90;79.90
23560;DHT22;11958;50.836;4.438;2023-04-06T08:37:22;8.90;80.00
23560;DHT22;11958;50.836;4.438;2023-04-06T08:39:47;8.80;79.60
23560;DHT22;11958;50.836;4.438;2023-04-06T08:42:25;9.10;80.50
23560;DHT22;11958;50.836;4.438;2023-04-06T08:44:51;8.90;79.80
23560;DHT22;11958;50.836;4.438;2023-04-06T08:47:18;8.80;79.80
23560;DHT22;11958;50.836;4.438;2023-04-06T08:49:44;8.90;81.00
23560;DHT22;11958;50.836;4.438;2023-04-06T08:52:11;9.00;80.80
23560;DHT22;11958;50.836;4.438;2023-04-06T08:54:38;9.00;80.00
23560;DHT22;11958;50.836;4.438;2023-04-06T08:57:04;9.30;79.70
23560;DHT22;11958;50.836;4.438;2023-04-06T08:59:31;9.30;80.00
23560;DHT22;11958;50.836;4.438;2023-04-06T09:01:58;9.30;79.90
23560;DHT22;11958;50.836;4.438;2023-04-06T09:04:26;9.20;78.10
23560;DHT22;11958;50.836;4.438;2023-04-06T09:06:52;9.10;80.70
23560;DHT22;11958;50.836;4.438;2023-04-06T09:09:18;9.30;80.40
23560;DHT22;11958;50.836;4.438;2023-04-06T09:11:47;9.10;80.10
23560;DHT22;11958;50.836;4.438;2023-04-06T09:14:29;9.00;80.10
23560;DHT22;11958;50.836;4.438;2023-04-06T09:16:58;9.00;80.40
23560;DHT22;11958;50.836;4.438;2023-04-06T09:19:23;9.40;81.40
23560;DHT22;11958;50.836;4.438;2023-04-06T09:21:49;9.30;80.60
23560;DHT22;11958;50.836;4.438;2023-04-06T09:24:15;9.20;81.10
23560;DHT22;11958;50.836;4.438;2023-04-06T09:26:47;9.20;81.40
23560;DHT22;11958;50.836;4.438;2023-04-06T09:29:25;9.20;81.10
23560;DHT22;11958;50.836;4.438;2023-04-06T09:31:52;9.30;80.90
23560;DHT22;11958;50.836;4.438;2023-04-06T09:34:21;9.50;79.40
23560;DHT22;11958;50.836;4.438;2023-04-06T09:36:48;9.60;80.10
23560;DHT22;11958;50.836;4.438;2023-04-06T09:39:14;9.60;78.70
23560;DHT22;11958;50.836;4.438;2023-04-06T09:41:40;9.40;80.30
23560;DHT22;11958;50.836;4.438;2023-04-06T09:44:10;9.20;81.50
23560;DHT22;11958;50.836;4.438;2023-04-06T09:46:38;9.40;81.50
23560;DHT22;11958;50.836;4.438;2023-04-06T09:49:08;9.30;81.80
23560;DHT22;11958;50.836;4.438;2023-04-06T09:51:39;9.30;80.40
23560;DHT22;11958;50.836;4.438;2023-04-06T09:54:06;9.10;80.20
23560;DHT22;11958;50.836;4.438;2023-04-06T09:56:43;8.90;81.30
23560;DHT22;11958;50.836;4.438;2023-04-06T09:59:16;9.10;81.60
23560;DHT22;11958;50.836;4.438;2023-04-06T10:01:44;9.20;81.80
23560;DHT22;11958;50.836;4.438;2023-04-06T10:04:36;9.30;81.20
23560;DHT22;11958;50.836;4.438;2023-04-06T10:07:03;9.30;80.30
23560;DHT22;11958;50.836;4.438;2023-04-06T10:09:31;9.20;81.10
23560;DHT22;11958;50.836;4.438;2023-04-06T10:12:05;9.30;82.10
23560;DHT22;11958;50.836;4.438;2023-04-06T10:14:33;8.90;82.10
23560;DHT22;11958;50.836;4.438;2023-04-06T10:17:08;8.90;80.80
23560;DHT22;11958;50.836;4.438;2023-04-06T10:19:55;8.80;83.50
23560;DHT22;11958;50.836;4.438;2023-04-06T10:22:41;8.90;83.70
23560;DHT22;11958;50.836;4.438;2023-04-06T10:25:08;9.10;83.60
23560;DHT22;11958;50.836;4.438;2023-04-06T10:27:34;9.10;83.90
23560;DHT22;11958;50.836;4.438;2023-04-06T10:30:05;9.30;81.80
23560;DHT22;11958;50.836;4.438;2023-04-06T10:32:31;9.30;81.30
23560;DHT22;11958;50.836;4.438;2023-04-06T10:35:05;9.30;82.90
23560;DHT22;11958;50.836;4.438;2023-04-06T10:38:06;9.50;83.60
23560;DHT22;11958;50.836;4.438;2023-04-06T10:40:31;9.20;82.70
23560;DHT22;11958;50.836;4.438;2023-04-06T10:43:09;9.40;84.70
23560;DHT22;11958;50.836;4.438;2023-04-06T10:45:36;9.70;81.90
23560;DHT22;11958;50.836;4.438;2023-04-06T10:48:16;9.30;82.80
23560;DHT22;11958;50.836;4.438;2023-04-06T10:50:47;9.60;84.20
23560;DHT22;11958;50.836;4.438;2023-04-06T10:55:47;9.60;82.10
23560;DHT22;11958;50.836;4.438;2023-04-06T10:58:14;9.40;83.50
23560;DHT22;11958;50.836;4.438;2023-04-06T11:00:47;9.40;84.30
23560;DHT22;11958;50.836;4.438;2023-04-06T11:03:13;9.30;83.40
23560;DHT22;11958;50.836;4.438;2023-04-06T11:05:46;9.20;83.90
23560;DHT22;11958;50.836;4.438;2023-04-06T11:08:32;9.40;83.80
23560;DHT22;11958;50.836;4.438;2023-04-06T11:11:09;9.30;82.80
23560;DHT22;11958;50.836;4.438;2023-04-06T11:13:43;9.50;82.90
23560;DHT22;11958;50.836;4.438;2023-04-06T11:16:16;9.60;82.20
23560;DHT22;11958;50.836;4.438;2023-04-06T11:18:50;9.50;83.30
23560;DHT22;11958;50.836;4.438;2023-04-06T11:21:16;9.50;83.20
23560;DHT22;11958;50.836;4.438;2023-04-06T11:23:42;9.70;83.40
23560;DHT22;11958;50.836;4.438;2023-04-06T11:26:14;9.80;82.50
23560;DHT22;11958;50.836;4.438;2023-04-06T11:28:41;9.60;82.90
23560;DHT22;11958;50.836;4.438;2023-04-06T11:31:09;9.70;82.30
23560;DHT22;11958;50.836;4.438;2023-04-06T11:33:37;9.70;81.70
23560;DHT22;11958;50.836;4.438;2023-04-06T11:36:04;9.50;82.10
23560;DHT22;11958;50.836;4.438;2023-04-06T11:38:30;9.40;83.90
23560;DHT22;11958;50.836;4.438;2023-04-06T11:40:56;9.80;82.60
23560;DHT22;11958;50.836;4.438;2023-04-06T11:43:29;10.00;81.60
23560;DHT22;11958;50.836;4.438;2023-04-06T11:46:03;10.00;81.40
23560;DHT22;11958;50.836;4.438;2023-04-06T11:48:30;10.10;81.10
23560;DHT22;11958;50.836;4.438;2023-04-06T11:50:59;9.80;82.10
23560;DHT22;11958;50.836;4.438;2023-04-06T11:53:30;10.20;80.80
23560;DHT22;11958;50.836;4.438;2023-04-06T11:55:56;10.00;80.70
23560;DHT22;11958;50.836;4.438;2023-04-06T11:58:22;10.00;80.70
23560;DHT22;11958;50.836;4.438;2023-04-06T12:00:48;10.10;81.50
23560;DHT22;11958;50.836;4.438;2023-04-06T12:03:14;10.00;81.60
23560;DHT22;11958;50.836;4.438;2023-04-06T12:05:39;9.90;83.10
23560;DHT22;11958;50.836;4.438;2023-04-06T12:08:05;9.90;82.90
23560;DHT22;11958;50.836;4.438;2023-04-06T12:10:31;9.80;83.90
23560;DHT22;11958;50.836;4.438;2023-04-06T12:12:56;9.70;84.20
23560;DHT22;11958;50.836;4.438;2023-04-06T12:15:22;9.80;83.80
23560;DHT22;11958;50.836;4.438;2023-04-06T12:17:48;9.70;83.60
23560;DHT22;11958;50.836;4.438;2023-04-06T12:20:15;9.90;83.20
23560;DHT22;11958;50.836;4.438;2023-04-06T12:22:40;10.00;83.70
23560;DHT22;11958;50.836;4.438;2023-04-06T12:25:06;10.40;82.90
23560;DHT22;11958;50.836;4.438;2023-04-06T12:27:32;10.40;83.00
23560;DHT22;11958;50.836;4.438;2023-04-06T12:29:58;10.20;81.90
23560;DHT22;11958;50.836;4.438;2023-04-06T12:32:24;10.00;84.10
23560;DHT22;11958;50.836;4.438;2023-04-06T12:34:52;10.00;84.30
23560;DHT22;11958;50.836;4.438;2023-04-06T12:37:18;9.70;85.40
23560;DHT22;11958;50.836;4.438;2023-04-06T12:39:44;9.60;86.90
23560;DHT22;11958;50.836;4.438;2023-04-06T12:42:13;9.50;87.20
23560;DHT22;11958;50.836;4.438;2023-04-06T12:44:39;9.50;88.30
23560;DHT22;11958;50.836;4.438;2023-04-06T12:47:05;9.60;87.90
23560;DHT22;11958;50.836;4.438;2023-04-06T12:49:32;9.50;87.90
23560;DHT22;11958;50.836;4.438;2023-04-06T12:51:58;9.40;88.80
23560;DHT22;11958;50.836;4.438;2023-04-06T12:54:23;9.30;89.40
23560;DHT22;11958;50.836;4.438;2023-04-06T12:56:52;9.20;89.80
23560;DHT22;11958;50.836;4.438;2023-04-06T12:59:17;9.10;91.10
23560;DHT22;11958;50.836;4.438;2023-04-06T13:01:43;9.30;89.80
23560;DHT22;11958;50.836;4.438;2023-04-06T13:04:09;9.20;90.60
23560;DHT22;11958;50.836;4.438;2023-04-06T13:06:35;9.20;90.70
23560;DHT22;11958;50.836;4.438;2023-04-06T13:09:00;9.20;89.80
23560;DHT22;11958;50.836;4.438;2023-04-06T13:11:26;9.30;89.00
23560;DHT22;11958;50.836;4.438;2023-04-06T13:13:52;9.20;90.10
23560;DHT22;11958;50.836;4.438;2023-04-06T13:16:18;9.30;89.40
23560;DHT22;11958;50.836;4.438;2023-04-06T13:18:43;9.30;89.50
23560;DHT22;11958;50.836;4.438;2023-04-06T13:21:13;9.40;88.50
23560;DHT22;11958;50.836;4.438;2023-04-06T13:23:40;9.20;89.60
23560;DHT22;11958;50.836;4.438;2023-04-06T13:26:07;9.20;88.60
23560;DHT22;11958;50.836;4.438;2023-04-06T13:28:34;9.20;89.80
23560;DHT22;11958;50.836;4.438;2023-04-06T13:31:01;9.10;90.10
23560;DHT22;11958;50.836;4.438;2023-04-06T13:33:28;9.00;89.90
23560;DHT22;11958;50.836;4.438;2023-04-06T13:35:53;9.10;90.90
23560;DHT22;11958;50.836;4.438;2023-04-06T13:38:19;9.20;89.70
23560;DHT22;11958;50.836;4.438;2023-04-06T13:40:45;9.20;90.50
23560;DHT22;11958;50.836;4.438;2023-04-06T13:43:11;9.20;89.50
23560;DHT22;11958;50.836;4.438;2023-04-06T13:45:37;9.40;90.00
23560;DHT22;11958;50.836;4.438;2023-04-06T13:48:03;9.50;90.30
23560;DHT22;11958;50.836;4.438;2023-04-06T13:50:29;9.40;89.00
23560;DHT22;11958;50.836;4.438;2023-04-06T13:52:55;9.50;88.80
23560;DHT22;11958;50.836;4.438;2023-04-06T13:55:22;9.70;87.90
23560;DHT22;11958;50.836;4.438;2023-04-06T13:57:50;9.50;88.90
23560;DHT22;11958;50.836;4.438;2023-04-06T14:00:16;9.60;89.70
23560;DHT22;11958;50.836;4.438;2023-04-06T14:02:41;9.60;88.80
23560;DHT22;11958;50.836;4.438;2023-04-06T14:05:07;9.80;88.50
23560;DHT22;11958;50.836;4.438;2023-04-06T14:07:33;9.80;87.90
23560;DHT22;11958;50.836;4.438;2023-04-06T14:09:59;9.40;90.00
23560;DHT22;11958;50.836;4.438;2023-04-06T14:12:25;9.40;90.40
23560;DHT22;11958;50.836;4.438;2023-04-06T14:14:52;9.40;90.70
23560;DHT22;11958;50.836;4.438;2023-04-06T14:17:18;9.30;91.20
23560;DHT22;11958;50.836;4.438;2023-04-06T14:19:43;9.20;92.30
23560;DHT22;11958;50.836;4.438;2023-04-06T14:22:09;9.30;92.80
23560;DHT22;11958;50.836;4.438;2023-04-06T14:24:35;9.60;93.00
23560;DHT22;11958;50.836;4.438;2023-04-06T14:27:02;9.70;92.30
23560;DHT22;11958;50.836;4.438;2023-04-06T14:29:28;9.80;91.50
23560;DHT22;11958;50.836;4.438;2023-04-06T14:32:03;9.60;91.80
23560;DHT22;11958;50.836;4.438;2023-04-06T14:34:28;9.80;90.80
23560;DHT22;11958;50.836;4.438;2023-04-06T14:36:55;9.90;91.20
23560;DHT22;11958;50.836;4.438;2023-04-06T14:39:21;9.60;91.60
23560;DHT22;11958;50.836;4.438;2023-04-06T14:41:46;9.40;92.40
23560;DHT22;11958;50.836;4.438;2023-04-06T14:44:15;9.50;93.00
23560;DHT22;11958;50.836;4.438;2023-04-06T14:46:42;9.50;92.60
23560;DHT22;11958;50.836;4.438;2023-04-06T14:49:07;9.40;93.00
23560;DHT22;11958;50.836;4.438;2023-04-06T14:51:36;9.70;93.40
23560;DHT22;11958;50.836;4.438;2023-04-06T14:54:02;9.90;92.50
23560;DHT22;11958;50.836;4.438;2023-04-06T14:56:28;9.90;93.30
23560;DHT22;11958;50.836;4.438;2023-04-06T14:58:57;10.00;92.00
23560;DHT22;11958;50.836;4.438;2023-04-06T15:01:23;9.80;92.50
23560;DHT22;11958;50.836;4.438;2023-04-06T15:03:49;10.20;91.00
23560;DHT22;11958;50.836;4.438;2023-04-06T15:06:17;10.10;90.50
23560;DHT22;11958;50.836;4.438;2023-04-06T15:08:45;10.10;91.60
23560;DHT22;11958;50.836;4.438;2023-04-06T15:11:11;10.20;90.50
23560;DHT22;11958;50.836;4.438;2023-04-06T15:13:38;10.10;91.30
23560;DHT22;11958;50.836;4.438;2023-04-06T15:16:05;9.90;91.30
23560;DHT22;11958;50.836;4.438;2023-04-06T15:18:31;10.00;91.90
23560;DHT22;11958;50.836;4.438;2023-04-06T15:20:56;10.00;92.50
23560;DHT22;11958;50.836;4.438;2023-04-06T15:23:22;10.00;92.50
23560;DHT22;11958;50.836;4.438;2023-04-06T15:25:48;10.10;92.20
23560;DHT22;11958;50.836;4.438;2023-04-06T15:28:14;10.20;91.90
23560;DHT22;11958;50.836;4.438;2023-04-06T15:30:40;10.30;90.60
23560;DHT22;11958;50.836;4.438;2023-04-06T15:33:07;10.20;92.10
23560;DHT22;11958;50.836;4.438;2023-04-06T15:35:33;10.30;93.30
23560;DHT22;11958;50.836;4.438;2023-04-06T15:38:08;10.70;92.10
23560;DHT22;11958;50.836;4.438;2023-04-06T15:40:34;10.60;90.90
23560;DHT22;11958;50.836;4.438;2023-04-06T15:43:01;10.60;90.70
23560;DHT22;11958;50.836;4.438;2023-04-06T15:45:27;10.50;90.50